JST707 YMML-YMHB
Flight info
| Callsign | JST707 |
|---|---|
| Flight time | 1h 0m |
| Altitude | 35000 |
| Route | ML H169 IRSOM V33 TASUM |
| Aircraft | A321/M-SDE3FGHIRWY/LB1 |
Departure
| Time | 2026-04-30 20:55 |
|---|---|
| Airport | Melbourne Airport (YMML) |
Arrival
| Time | 2026-04-30 21:55 |
|---|---|
| Airport | Hobart International Airport (YMHB) |
| Time | Latitude | Longitude | Altitude | Speed | Heading |
|---|---|---|---|---|---|
| 2026-04-30 20:33 | -37.67534 | 144.84695 | 379 ft | 0 kts | 172° |
| 2026-04-30 20:48 | -37.67513 | 144.84691 | 379 ft | 4 kts | 172° |
| 2026-04-30 20:48 | -37.67492 | 144.84687 | 380 ft | 4 kts | 172° |
| 2026-04-30 20:48 | -37.67465 | 144.84684 | 381 ft | 4 kts | 183° |
| 2026-04-30 20:48 | -37.67443 | 144.84691 | 381 ft | 4 kts | 239° |
| 2026-04-30 20:49 | -37.67437 | 144.84719 | 382 ft | 4 kts | 261° |
| 2026-04-30 20:49 | -37.67436 | 144.84726 | 382 ft | 1 kts | 261° |
| 2026-04-30 20:51 | -37.67436 | 144.84725 | 382 ft | 0 kts | 261° |
| 2026-04-30 20:51 | -37.67443 | 144.84671 | 381 ft | 8 kts | 261° |
| 2026-04-30 20:51 | -37.67455 | 144.84570 | 380 ft | 15 kts | 261° |
| 2026-04-30 20:52 | -37.67473 | 144.84416 | 377 ft | 19 kts | 261° |
| 2026-04-30 20:52 | -37.67494 | 144.84237 | 373 ft | 22 kts | 262° |
| 2026-04-30 20:52 | -37.67650 | 144.84143 | 368 ft | 14 kts | 172° |
| 2026-04-30 20:53 | -37.67757 | 144.84162 | 365 ft | 17 kts | 172° |
| 2026-04-30 20:53 | -37.67850 | 144.84167 | 360 ft | 11 kts | 205° |
| 2026-04-30 20:53 | -37.67880 | 144.84065 | 359 ft | 15 kts | 261° |
| 2026-04-30 20:54 | -37.67821 | 144.83958 | 359 ft | 27 kts | 352° |
| 2026-04-30 20:54 | -37.67395 | 144.83878 | 370 ft | 96 kts | 351° |
| 2026-04-30 20:54 | -37.66535 | 144.83720 | 408 ft | 152 kts | 352° |
| 2026-04-30 20:55 | -37.64400 | 144.83309 | 1827 ft | 153 kts | 354° |
| 2026-04-30 20:55 | -37.63359 | 144.83106 | 2503 ft | 150 kts | 353° |
| 2026-04-30 20:55 | -37.62331 | 144.82908 | 3131 ft | 148 kts | 352° |
| 2026-04-30 20:56 | -37.60233 | 144.82506 | 4006 ft | 168 kts | 351° |
| 2026-04-30 20:56 | -37.58992 | 144.82493 | 4178 ft | 192 kts | 8° |
| 2026-04-30 20:56 | -37.56346 | 144.84012 | 5077 ft | 219 kts | 30° |
| 2026-04-30 20:57 | -37.55323 | 144.85499 | 5718 ft | 237 kts | 59° |
| 2026-04-30 20:57 | -37.55099 | 144.87630 | 6313 ft | 261 kts | 96° |
| 2026-04-30 20:57 | -37.55942 | 144.89705 | 6912 ft | 278 kts | 133° |
| 2026-04-30 20:58 | -37.59452 | 144.91724 | 8247 ft | 281 kts | 167° |
| 2026-04-30 20:58 | -37.61428 | 144.92278 | 8558 ft | 300 kts | 170° |
| 2026-04-30 20:58 | -37.63497 | 144.92795 | 9099 ft | 306 kts | 169° |
| 2026-04-30 20:58 | -37.65594 | 144.93343 | 9783 ft | 308 kts | 168° |
| 2026-04-30 20:59 | -37.69915 | 144.94609 | 10530 ft | 335 kts | 166° |
| 2026-04-30 20:59 | -37.72241 | 144.95347 | 10655 ft | 355 kts | 166° |
| 2026-04-30 21:00 | -37.77123 | 144.96956 | 11571 ft | 367 kts | 166° |
| 2026-04-30 21:00 | -37.82108 | 144.98613 | 12694 ft | 374 kts | 166° |
| 2026-04-30 21:01 | -37.87195 | 145.00290 | 13821 ft | 381 kts | 166° |
| 2026-04-30 21:01 | -37.89769 | 145.01136 | 14341 ft | 384 kts | 166° |
| 2026-04-30 21:01 | -37.94984 | 145.02850 | 15329 ft | 390 kts | 166° |
| 2026-04-30 21:02 | -37.97623 | 145.03719 | 15827 ft | 393 kts | 166° |
| 2026-04-30 21:02 | -38.00282 | 145.04596 | 16322 ft | 396 kts | 166° |
| 2026-04-30 21:02 | -38.02961 | 145.05476 | 16810 ft | 399 kts | 166° |
| 2026-04-30 21:02 | -38.05655 | 145.06362 | 17310 ft | 402 kts | 166° |
| 2026-04-30 21:03 | -38.08332 | 145.07243 | 17799 ft | 404 kts | 166° |
| 2026-04-30 21:03 | -38.11061 | 145.08143 | 18298 ft | 406 kts | 166° |
| 2026-04-30 21:03 | -38.13804 | 145.09049 | 18756 ft | 409 kts | 166° |
| 2026-04-30 21:03 | -38.16600 | 145.09974 | 19164 ft | 411 kts | 166° |
| 2026-04-30 21:04 | -38.19340 | 145.10879 | 19560 ft | 413 kts | 166° |
| 2026-04-30 21:04 | -38.22132 | 145.11804 | 19967 ft | 416 kts | 166° |
| 2026-04-30 21:04 | -38.27770 | 145.13676 | 20747 ft | 421 kts | 167° |
| 2026-04-30 21:05 | -38.30607 | 145.14618 | 21129 ft | 423 kts | 167° |
| 2026-04-30 21:05 | -38.33469 | 145.15567 | 21506 ft | 426 kts | 167° |
| 2026-04-30 21:05 | -38.36354 | 145.16529 | 21874 ft | 429 kts | 166° |
| 2026-04-30 21:05 | -38.39242 | 145.17497 | 22239 ft | 431 kts | 166° |
| 2026-04-30 21:06 | -38.42154 | 145.18471 | 22603 ft | 434 kts | 166° |
| 2026-04-30 21:06 | -38.45083 | 145.19448 | 22969 ft | 436 kts | 167° |
| 2026-04-30 21:06 | -38.48034 | 145.20432 | 23293 ft | 440 kts | 167° |
| 2026-04-30 21:06 | -38.51004 | 145.21436 | 23628 ft | 443 kts | 166° |
| 2026-04-30 21:07 | -38.53973 | 145.22569 | 23957 ft | 446 kts | 163° |
| 2026-04-30 21:07 | -38.56922 | 145.23837 | 24262 ft | 448 kts | 162° |
| 2026-04-30 21:07 | -38.59869 | 145.25187 | 24588 ft | 450 kts | 161° |
| 2026-04-30 21:07 | -38.62815 | 145.26562 | 24912 ft | 452 kts | 161° |
| 2026-04-30 21:08 | -38.65773 | 145.27931 | 25238 ft | 453 kts | 161° |
| 2026-04-30 21:08 | -38.68746 | 145.29280 | 25560 ft | 454 kts | 162° |
| 2026-04-30 21:08 | -38.71732 | 145.30607 | 25876 ft | 455 kts | 162° |
| 2026-04-30 21:08 | -38.74734 | 145.31924 | 26185 ft | 457 kts | 162° |
| 2026-04-30 21:09 | -38.77745 | 145.33239 | 26483 ft | 458 kts | 162° |
| 2026-04-30 21:09 | -38.80772 | 145.34565 | 26783 ft | 460 kts | 162° |
| 2026-04-30 21:09 | -38.83807 | 145.35900 | 27087 ft | 461 kts | 162° |
| 2026-04-30 21:09 | -38.86840 | 145.37243 | 27379 ft | 463 kts | 162° |
| 2026-04-30 21:10 | -38.89893 | 145.38598 | 27682 ft | 464 kts | 162° |
| 2026-04-30 21:10 | -38.92910 | 145.39941 | 27960 ft | 466 kts | 162° |
| 2026-04-30 21:10 | -38.95984 | 145.41314 | 28243 ft | 468 kts | 162° |
| 2026-04-30 21:10 | -38.99064 | 145.42689 | 28521 ft | 469 kts | 162° |
| 2026-04-30 21:11 | -39.02154 | 145.44067 | 28806 ft | 471 kts | 162° |
| 2026-04-30 21:11 | -39.05255 | 145.45448 | 29087 ft | 472 kts | 162° |
| 2026-04-30 21:11 | -39.08369 | 145.46835 | 29350 ft | 474 kts | 162° |
| 2026-04-30 21:11 | -39.11488 | 145.48227 | 29629 ft | 475 kts | 162° |
| 2026-04-30 21:12 | -39.14618 | 145.49627 | 29854 ft | 477 kts | 162° |
| 2026-04-30 21:12 | -39.17766 | 145.51034 | 30084 ft | 479 kts | 162° |
| 2026-04-30 21:12 | -39.20922 | 145.52449 | 30309 ft | 480 kts | 162° |
| 2026-04-30 21:12 | -39.24081 | 145.53867 | 30492 ft | 482 kts | 162° |
| 2026-04-30 21:13 | -39.27248 | 145.55291 | 30669 ft | 483 kts | 162° |
| 2026-04-30 21:13 | -39.30420 | 145.56715 | 30905 ft | 482 kts | 162° |
| 2026-04-30 21:13 | -39.33589 | 145.58140 | 31155 ft | 482 kts | 162° |
| 2026-04-30 21:13 | -39.36751 | 145.59566 | 31402 ft | 481 kts | 162° |
| 2026-04-30 21:14 | -39.39895 | 145.60984 | 31836 ft | 475 kts | 163° |
| 2026-04-30 21:14 | -39.43008 | 145.62393 | 32191 ft | 473 kts | 163° |
| 2026-04-30 21:14 | -39.46111 | 145.63799 | 32486 ft | 472 kts | 163° |
| 2026-04-30 21:14 | -39.48162 | 145.64726 | 32670 ft | 471 kts | 163° |
| 2026-04-30 21:15 | -39.51260 | 145.66123 | 32942 ft | 471 kts | 163° |
| 2026-04-30 21:15 | -39.54351 | 145.67518 | 33201 ft | 470 kts | 163° |
| 2026-04-30 21:15 | -39.58442 | 145.69372 | 33525 ft | 471 kts | 163° |
| 2026-04-30 21:15 | -39.60525 | 145.70316 | 33671 ft | 471 kts | 163° |
| 2026-04-30 21:16 | -39.64620 | 145.72178 | 34001 ft | 470 kts | 163° |
| 2026-04-30 21:16 | -39.66704 | 145.73126 | 34200 ft | 469 kts | 163° |
| 2026-04-30 21:16 | -39.69791 | 145.74527 | 34451 ft | 468 kts | 163° |
| 2026-04-30 21:16 | -39.72865 | 145.75920 | 34675 ft | 468 kts | 163° |
| 2026-04-30 21:17 | -39.75932 | 145.77312 | 34908 ft | 467 kts | 163° |
| 2026-04-30 21:17 | -39.78957 | 145.78692 | 35153 ft | 466 kts | 163° |
| 2026-04-30 21:17 | -39.82028 | 145.80098 | 35261 ft | 469 kts | 163° |
| 2026-04-30 21:17 | -39.85117 | 145.81509 | 35288 ft | 472 kts | 163° |
| 2026-04-30 21:18 | -39.91324 | 145.84342 | 35284 ft | 472 kts | 163° |
| 2026-04-30 21:18 | -39.97530 | 145.87181 | 35285 ft | 473 kts | 163° |
| 2026-04-30 21:19 | -40.03740 | 145.90041 | 35283 ft | 474 kts | 163° |
| 2026-04-30 21:19 | -40.09958 | 145.92925 | 35284 ft | 474 kts | 163° |
| 2026-04-30 21:20 | -40.16174 | 145.95816 | 35290 ft | 474 kts | 163° |
| 2026-04-30 21:20 | -40.22403 | 145.98719 | 35294 ft | 475 kts | 163° |
| 2026-04-30 21:21 | -40.28590 | 146.01600 | 35305 ft | 475 kts | 163° |
| 2026-04-30 21:22 | -40.37938 | 146.05971 | 35298 ft | 475 kts | 163° |
| 2026-04-30 21:23 | -40.50415 | 146.11815 | 35307 ft | 476 kts | 163° |
| 2026-04-30 21:23 | -40.59791 | 146.16222 | 35308 ft | 477 kts | 163° |
| 2026-04-30 21:24 | -40.66042 | 146.19167 | 35308 ft | 477 kts | 163° |
| 2026-04-30 21:24 | -40.72257 | 146.22104 | 35313 ft | 477 kts | 163° |
| 2026-04-30 21:25 | -40.81634 | 146.26549 | 35310 ft | 477 kts | 163° |
| 2026-04-30 21:26 | -40.91012 | 146.31005 | 35310 ft | 477 kts | 163° |
| 2026-04-30 21:26 | -40.94142 | 146.32490 | 35094 ft | 477 kts | 163° |
| 2026-04-30 21:27 | -41.00354 | 146.35454 | 34074 ft | 471 kts | 163° |
| 2026-04-30 21:27 | -41.03424 | 146.36923 | 33556 ft | 467 kts | 163° |
| 2026-04-30 21:27 | -41.06471 | 146.38383 | 33046 ft | 464 kts | 163° |
| 2026-04-30 21:28 | -41.12493 | 146.41271 | 32031 ft | 457 kts | 163° |
| 2026-04-30 21:28 | -41.15472 | 146.42699 | 31538 ft | 453 kts | 163° |
| 2026-04-30 21:28 | -41.21210 | 146.46085 | 30529 ft | 450 kts | 157° |
| 2026-04-30 21:29 | -41.24026 | 146.47862 | 29982 ft | 447 kts | 157° |
| 2026-04-30 21:29 | -41.32324 | 146.53071 | 28411 ft | 436 kts | 157° |
| 2026-04-30 21:30 | -41.37763 | 146.56502 | 27436 ft | 428 kts | 157° |
| 2026-04-30 21:31 | -41.45733 | 146.61566 | 26035 ft | 418 kts | 157° |
| 2026-04-30 21:31 | -41.50906 | 146.64851 | 25471 ft | 401 kts | 157° |
| 2026-04-30 21:32 | -41.55830 | 146.67985 | 24889 ft | 387 kts | 157° |
| 2026-04-30 21:32 | -41.58251 | 146.69524 | 24487 ft | 384 kts | 157° |
| 2026-04-30 21:32 | -41.60652 | 146.71056 | 24073 ft | 381 kts | 157° |
| 2026-04-30 21:32 | -41.63034 | 146.72580 | 23636 ft | 378 kts | 157° |
| 2026-04-30 21:33 | -41.65399 | 146.74092 | 23166 ft | 375 kts | 157° |
| 2026-04-30 21:33 | -41.70075 | 146.77098 | 22251 ft | 370 kts | 156° |
| 2026-04-30 21:33 | -41.72374 | 146.78584 | 21988 ft | 362 kts | 156° |
| 2026-04-30 21:34 | -41.74590 | 146.80022 | 21691 ft | 355 kts | 156° |
| 2026-04-30 21:34 | -41.79012 | 146.82889 | 20858 ft | 351 kts | 156° |
| 2026-04-30 21:34 | -41.81205 | 146.84306 | 20445 ft | 349 kts | 156° |
| 2026-04-30 21:35 | -41.83380 | 146.85714 | 20072 ft | 346 kts | 156° |
| 2026-04-30 21:35 | -41.85545 | 146.87119 | 19725 ft | 345 kts | 156° |
| 2026-04-30 21:35 | -41.87697 | 146.88515 | 19327 ft | 343 kts | 156° |
| 2026-04-30 21:35 | -41.89838 | 146.89906 | 18940 ft | 341 kts | 156° |
| 2026-04-30 21:36 | -41.91962 | 146.91288 | 18593 ft | 338 kts | 156° |
| 2026-04-30 21:36 | -41.94091 | 146.92672 | 18331 ft | 342 kts | 156° |
| 2026-04-30 21:37 | -42.00492 | 146.96846 | 17535 ft | 338 kts | 156° |
| 2026-04-30 21:37 | -42.02604 | 146.98225 | 17273 ft | 337 kts | 156° |
| 2026-04-30 21:37 | -42.04705 | 146.99597 | 17016 ft | 335 kts | 156° |
| 2026-04-30 21:37 | -42.06767 | 147.00943 | 16763 ft | 333 kts | 156° |
| 2026-04-30 21:38 | -42.08846 | 147.02302 | 16508 ft | 331 kts | 156° |
| 2026-04-30 21:38 | -42.10914 | 147.03659 | 16270 ft | 330 kts | 156° |
| 2026-04-30 21:38 | -42.12969 | 147.05012 | 16006 ft | 328 kts | 156° |
| 2026-04-30 21:38 | -42.15016 | 147.06358 | 15760 ft | 327 kts | 156° |
| 2026-04-30 21:39 | -42.17015 | 147.07810 | 15516 ft | 327 kts | 148° |
| 2026-04-30 21:39 | -42.18779 | 147.09746 | 15289 ft | 328 kts | 139° |
| 2026-04-30 21:39 | -42.20457 | 147.11827 | 15048 ft | 328 kts | 139° |
| 2026-04-30 21:39 | -42.22134 | 147.13905 | 14803 ft | 327 kts | 139° |
| 2026-04-30 21:40 | -42.23807 | 147.15980 | 14572 ft | 325 kts | 139° |
| 2026-04-30 21:40 | -42.25467 | 147.18042 | 14336 ft | 324 kts | 139° |
| 2026-04-30 21:40 | -42.27122 | 147.20104 | 14101 ft | 323 kts | 139° |
| 2026-04-30 21:40 | -42.28772 | 147.22159 | 13842 ft | 322 kts | 139° |
| 2026-04-30 21:41 | -42.30417 | 147.24200 | 13574 ft | 320 kts | 139° |
| 2026-04-30 21:41 | -42.32123 | 147.26113 | 13309 ft | 317 kts | 149° |
| 2026-04-30 21:41 | -42.34025 | 147.27584 | 13054 ft | 314 kts | 154° |
| 2026-04-30 21:41 | -42.35932 | 147.28998 | 12798 ft | 312 kts | 154° |
| 2026-04-30 21:42 | -42.37832 | 147.30413 | 12539 ft | 310 kts | 153° |
| 2026-04-30 21:42 | -42.39715 | 147.31821 | 12188 ft | 308 kts | 153° |
| 2026-04-30 21:42 | -42.41580 | 147.33220 | 11847 ft | 305 kts | 153° |
| 2026-04-30 21:42 | -42.43430 | 147.34611 | 11491 ft | 303 kts | 153° |
| 2026-04-30 21:43 | -42.45265 | 147.35993 | 11150 ft | 301 kts | 153° |
| 2026-04-30 21:43 | -42.47088 | 147.37361 | 10827 ft | 298 kts | 153° |
| 2026-04-30 21:43 | -42.48902 | 147.38719 | 10467 ft | 297 kts | 153° |
| 2026-04-30 21:43 | -42.50712 | 147.40073 | 10087 ft | 297 kts | 153° |
| 2026-04-30 21:44 | -42.52521 | 147.41430 | 9870 ft | 295 kts | 153° |
| 2026-04-30 21:44 | -42.54313 | 147.42775 | 9320 ft | 295 kts | 153° |
| 2026-04-30 21:44 | -42.56081 | 147.44104 | 8979 ft | 293 kts | 153° |
| 2026-04-30 21:44 | -42.57860 | 147.45444 | 8603 ft | 292 kts | 153° |
| 2026-04-30 21:45 | -42.59579 | 147.46914 | 8230 ft | 293 kts | 142° |
| 2026-04-30 21:45 | -42.61137 | 147.48692 | 7874 ft | 292 kts | 141° |
| 2026-04-30 21:45 | -42.62689 | 147.50464 | 7530 ft | 291 kts | 141° |
| 2026-04-30 21:45 | -42.64237 | 147.52227 | 7250 ft | 288 kts | 142° |
| 2026-04-30 21:46 | -42.65767 | 147.53961 | 7002 ft | 284 kts | 141° |
| 2026-04-30 21:46 | -42.67270 | 147.55669 | 6759 ft | 280 kts | 142° |
| 2026-04-30 21:46 | -42.68757 | 147.57363 | 6517 ft | 279 kts | 142° |
| 2026-04-30 21:46 | -42.70245 | 147.59058 | 6257 ft | 279 kts | 142° |
| 2026-04-30 21:47 | -42.71741 | 147.60763 | 6000 ft | 280 kts | 142° |
| 2026-04-30 21:47 | -42.73230 | 147.62461 | 5749 ft | 278 kts | 141° |
| 2026-04-30 21:47 | -42.74709 | 147.64144 | 5500 ft | 276 kts | 142° |
| 2026-04-30 21:47 | -42.76182 | 147.65824 | 5256 ft | 277 kts | 141° |
| 2026-04-30 21:48 | -42.77639 | 147.67489 | 5012 ft | 276 kts | 141° |
| 2026-04-30 21:48 | -42.79111 | 147.69176 | 4765 ft | 278 kts | 141° |
| 2026-04-30 21:48 | -42.80599 | 147.70878 | 4550 ft | 279 kts | 141° |
| 2026-04-30 21:48 | -42.82094 | 147.72585 | 4423 ft | 280 kts | 141° |
| 2026-04-30 21:49 | -42.83579 | 147.74287 | 4293 ft | 278 kts | 141° |
| 2026-04-30 21:49 | -42.85172 | 147.75665 | 4186 ft | 264 kts | 162° |
| 2026-04-30 21:49 | -42.86902 | 147.76091 | 4071 ft | 242 kts | 188° |
| 2026-04-30 21:49 | -42.88448 | 147.75688 | 4015 ft | 211 kts | 209° |
| 2026-04-30 21:50 | -42.89692 | 147.74875 | 4026 ft | 189 kts | 216° |
| 2026-04-30 21:50 | -42.90834 | 147.74109 | 4022 ft | 180 kts | 217° |
| 2026-04-30 21:50 | -42.91935 | 147.73320 | 4011 ft | 175 kts | 226° |
| 2026-04-30 21:50 | -42.92650 | 147.72121 | 4013 ft | 157 kts | 256° |
| 2026-04-30 21:51 | -42.92832 | 147.70726 | 3736 ft | 150 kts | 279° |
| 2026-04-30 21:51 | -42.92820 | 147.69272 | 3338 ft | 156 kts | 278° |
| 2026-04-30 21:51 | -42.92817 | 147.67767 | 2918 ft | 161 kts | 278° |
| 2026-04-30 21:51 | -42.92814 | 147.66221 | 2532 ft | 161 kts | 278° |
| 2026-04-30 21:52 | -42.92817 | 147.64753 | 2401 ft | 151 kts | 279° |
| 2026-04-30 21:52 | -42.92577 | 147.63438 | 2361 ft | 139 kts | 306° |
| 2026-04-30 21:52 | -42.91928 | 147.62470 | 2133 ft | 139 kts | 318° |
| 2026-04-30 21:52 | -42.91238 | 147.61536 | 1896 ft | 140 kts | 318° |
| 2026-04-30 21:53 | -42.90546 | 147.60599 | 1702 ft | 140 kts | 319° |
| 2026-04-30 21:53 | -42.89858 | 147.59665 | 1508 ft | 140 kts | 319° |
| 2026-04-30 21:53 | -42.89163 | 147.58722 | 1325 ft | 140 kts | 319° |
| 2026-04-30 21:53 | -42.88479 | 147.57790 | 1127 ft | 140 kts | 318° |
| 2026-04-30 21:54 | -42.87786 | 147.56849 | 945 ft | 140 kts | 318° |
| 2026-04-30 21:54 | -42.87106 | 147.55923 | 762 ft | 138 kts | 319° |
| 2026-04-30 21:54 | -42.86426 | 147.55001 | 582 ft | 137 kts | 318° |
| 2026-04-30 21:54 | -42.85754 | 147.54083 | 397 ft | 138 kts | 317° |
| 2026-04-30 21:55 | -42.85080 | 147.53162 | 218 ft | 136 kts | 317° |
| 2026-04-30 21:55 | -42.84412 | 147.52260 | 34 ft | 135 kts | 316° |
| 2026-04-30 21:55 | -42.83832 | 147.51474 | 22 ft | 95 kts | 315° |
| 2026-04-30 21:55 | -42.83486 | 147.51002 | 22 ft | 46 kts | 315° |
| 2026-04-30 21:56 | -42.83345 | 147.50810 | 22 ft | 17 kts | 314° |
| 2026-04-30 21:56 | -42.83296 | 147.50707 | 22 ft | 12 kts | 285° |
| 2026-04-30 21:56 | -42.83334 | 147.50624 | 23 ft | 12 kts | 225° |
| 2026-04-30 21:56 | -42.83392 | 147.50553 | 23 ft | 9 kts | 204° |
| 2026-04-30 21:57 | -42.83449 | 147.50584 | 24 ft | 10 kts | 135° |
| 2026-04-30 21:57 | -42.83502 | 147.50657 | 24 ft | 11 kts | 135° |
| 2026-04-30 21:57 | -42.83560 | 147.50696 | 22 ft | 10 kts | 189° |
| 2026-04-30 21:57 | -42.83620 | 147.50660 | 22 ft | 9 kts | 177° |
| 2026-04-30 21:58 | -42.83666 | 147.50703 | 23 ft | 6 kts | 155° |
| 2026-04-30 21:58 | -42.83702 | 147.50677 | 22 ft | 6 kts | 221° |
| 2026-04-30 21:58 | -42.83712 | 147.50664 | 23 ft | 0 kts | 223° |